Time,TemperatureF,DewpointF,PressureIn,WindDirection,WindDirectionDegrees,WindSpeedMPH,WindSpeedGustMPH,Humidity,HourlyPrecipIn,Conditions,Clouds,dailyrainin,SoftwareType,DateUTC
2013-05-26 00:01:00,42.3,38.4,29.77,North,0,0.7,3.8,86,0.00,,,0.00,pywws,2013-05-26 04:01:00,
2013-05-26 00:02:00,42.3,38.1,29.77,NW,315,3.1,5.4,85,0.00,,,0.00,pywws,2013-05-26 04:02:00,
2013-05-26 00:03:00,42.3,38.1,29.77,North,0,0.0,0.0,85,0.00,,,0.00,pywws,2013-05-26 04:03:00,
2013-05-26 00:04:00,42.3,38.1,29.77,South,180,0.0,0.7,85,0.00,,,0.00,pywws,2013-05-26 04:04:00,
2013-05-26 00:09:00,42.3,38.1,29.77,NE,45,0.0,0.0,85,0.00,,,0.00,pywws,2013-05-26 04:09:00,
2013-05-26 00:15:00,42.3,38.1,29.77,West,270,0.0,0.0,85,0.00,,,0.00,pywws,2013-05-26 04:15:00,
2013-05-26 00:20:00,42.3,38.1,29.77,NW,315,0.0,0.0,85,0.00,,,0.00,pywws,2013-05-26 04:20:00,
2013-05-26 00:26:00,42.1,37.6,29.77,West,270,0.7,3.8,84,0.00,,,0.00,pywws,2013-05-26 04:26:00,
2013-05-26 00:32:00,41.9,37.4,29.77,North,0,0.0,0.0,84,0.00,,,0.00,pywws,2013-05-26 04:32:00,
2013-05-26 00:37:00,42.1,37.6,29.77,North,0,0.0,0.0,84,0.00,,,0.00,pywws,2013-05-26 04:37:00,
2013-05-26 00:43:00,42.1,37.6,29.77,West,270,0.0,1.6,84,0.00,,,0.00,pywws,2013-05-26 04:43:00,
2013-05-26 00:48:00,42.1,37.6,29.77,North,0,0.0,0.0,84,0.00,,,0.00,pywws,2013-05-26 04:48:00,
2013-05-26 00:54:00,42.1,37.6,29.77,North,0,0.0,0.0,84,0.00,,,0.00,pywws,2013-05-26 04:54:00,
2013-05-26 01:00:00,41.9,37.4,29.77,North,0,0.0,0.0,84,0.00,,,0.00,pywws,2013-05-26 05:00:00,
2013-05-26 01:06:00,41.9,37.4,29.77,North,0,0.0,0.7,84,0.00,,,0.00,pywws,2013-05-26 05:06:00,
2013-05-26 01:12:00,41.7,37.2,29.77,West,270,0.0,1.6,84,0.00,,,0.00,pywws,2013-05-26 05:12:00,
2013-05-26 01:17:00,41.5,37.1,29.77,NW,315,1.6,6.0,84,0.00,,,0.00,pywws,2013-05-26 05:17:00,
2013-05-26 01:23:00,41.5,36.8,29.77,NW,315,6.0,11.4,83,0.00,,,0.00,pywws,2013-05-26 05:23:00,
2013-05-26 01:28:00,41.2,36.4,29.77,NW,315,0.0,1.6,83,0.00,,,0.00,pywws,2013-05-26 05:28:00,
2013-05-26 01:34:00,41.0,36.2,29.76,North,0,0.0,2.2,83,0.00,,,0.00,pywws,2013-05-26 05:34:00,
2013-05-26 01:40:00,40.6,36.5,29.77,NE,45,0.0,0.0,85,0.01,,,0.01,pywws,2013-05-26 05:40:00,
2013-05-26 01:45:00,39.9,36.1,29.76,NE,45,0.0,2.2,86,0.01,,,0.01,pywws,2013-05-26 05:45:00,
2013-05-26 01:51:00,39.7,36.5,29.76,West,270,0.0,1.6,88,0.01,,,0.01,pywws,2013-05-26 05:51:00,
2013-05-26 01:56:00,39.6,36.6,29.76,SE,135,0.0,0.0,89,0.02,,,0.02,pywws,2013-05-26 05:56:00,
2013-05-26 02:02:00,39.6,36.9,29.76,West,270,0.0,0.0,90,0.02,,,0.02,pywws,2013-05-26 06:02:00,
2013-05-26 02:08:00,39.6,37.2,29.76,West,270,0.0,0.0,91,0.02,,,0.02,pywws,2013-05-26 06:08:00,
2013-05-26 02:13:00,39.7,37.6,29.76,East,90,0.0,0.0,92,0.02,,,0.02,pywws,2013-05-26 06:13:00,
2013-05-26 02:19:00,39.6,37.7,29.76,North,0,0.0,0.0,93,0.02,,,0.02,pywws,2013-05-26 06:19:00,
2013-05-26 02:24:00,39.9,38.1,29.75,North,0,0.0,0.0,93,0.02,,,0.02,pywws,2013-05-26 06:24:00,
2013-05-26 02:30:00,40.1,38.5,29.75,SE,135,0.0,0.0,94,0.02,,,0.02,pywws,2013-05-26 06:30:00,
2013-05-26 02:36:00,40.1,38.5,29.75,North,0,0.0,0.0,94,0.02,,,0.02,pywws,2013-05-26 06:36:00,
2013-05-26 02:41:00,40.1,38.5,29.75,SE,135,0.0,3.1,94,0.01,,,0.02,pywws,2013-05-26 06:41:00,
2013-05-26 02:47:00,40.3,38.7,29.75,East,90,0.0,0.0,94,0.01,,,0.02,pywws,2013-05-26 06:47:00,
2013-05-26 02:52:00,40.5,38.9,29.75,South,180,0.0,0.0,94,0.01,,,0.02,pywws,2013-05-26 06:52:00,
2013-05-26 02:58:00,40.5,38.9,29.75,SE,135,0.0,0.0,94,0.00,,,0.02,pywws,2013-05-26 06:58:00,
2013-05-26 03:04:00,40.5,38.9,29.75,North,0,0.0,0.0,94,0.00,,,0.02,pywws,2013-05-26 07:04:00,
2013-05-26 03:09:00,40.5,38.9,29.75,West,270,0.0,0.0,94,0.00,,,0.02,pywws,2013-05-26 07:09:00,
2013-05-26 03:15:00,40.5,38.9,29.75,North,0,0.0,0.0,94,0.00,,,0.02,pywws,2013-05-26 07:15:00,
2013-05-26 03:20:00,40.6,39.1,29.75,North,0,0.7,3.1,94,0.00,,,0.02,pywws,2013-05-26 07:20:00,
2013-05-26 03:26:00,40.6,38.8,29.75,West,270,0.0,0.0,93,0.00,,,0.02,pywws,2013-05-26 07:26:00,
2013-05-26 03:32:00,40.8,39.0,29.75,SE,135,0.0,2.2,93,0.00,,,0.02,pywws,2013-05-26 07:32:00,
2013-05-26 03:37:00,41.0,38.6,29.75,North,0,0.0,0.0,91,0.00,,,0.02,pywws,2013-05-26 07:37:00,
2013-05-26 03:43:00,41.0,38.6,29.75,NW,315,0.0,0.7,91,0.00,,,0.02,pywws,2013-05-26 07:43:00,
2013-05-26 03:48:00,41.0,38.6,29.75,North,0,0.0,0.7,91,0.00,,,0.02,pywws,2013-05-26 07:48:00,
2013-05-26 03:54:00,41.2,38.5,29.75,South,180,0.7,5.4,90,0.00,,,0.02,pywws,2013-05-26 07:54:00,
2013-05-26 04:00:00,41.2,38.5,29.75,North,0,0.0,0.0,90,0.00,,,0.02,pywws,2013-05-26 08:00:00,
2013-05-26 04:05:00,41.4,38.7,29.75,North,0,0.0,0.7,90,0.00,,,0.02,pywws,2013-05-26 08:05:00,
2013-05-26 04:11:00,41.4,38.7,29.75,West,270,0.0,0.0,90,0.00,,,0.02,pywws,2013-05-26 08:11:00,
2013-05-26 04:16:00,41.5,38.5,29.75,North,0,0.0,0.0,89,0.00,,,0.02,pywws,2013-05-26 08:16:00,
2013-05-26 04:22:00,41.4,38.4,29.75,South,180,0.0,0.0,89,0.00,,,0.02,pywws,2013-05-26 08:22:00,
2013-05-26 04:28:00,41.7,38.7,29.75,North,0,0.0,0.0,89,0.00,,,0.02,pywws,2013-05-26 08:28:00,
2013-05-26 04:33:00,41.5,38.5,29.75,NW,315,0.0,0.0,89,0.00,,,0.02,pywws,2013-05-26 08:33:00,
2013-05-26 04:39:00,41.9,38.6,29.75,West,270,0.7,4.5,88,0.00,,,0.02,pywws,2013-05-26 08:39:00,
2013-05-26 04:44:00,41.9,38.3,29.75,SW,225,0.0,0.0,87,0.00,,,0.02,pywws,2013-05-26 08:44:00,
2013-05-26 04:50:00,41.9,38.3,29.75,SE,135,0.0,0.7,87,0.00,,,0.02,pywws,2013-05-26 08:50:00,
2013-05-26 04:56:00,42.1,38.2,29.75,North,0,0.0,0.7,86,0.00,,,0.02,pywws,2013-05-26 08:56:00,
2013-05-26 05:01:00,42.4,38.3,29.75,North,0,0.0,0.0,85,0.00,,,0.02,pywws,2013-05-26 09:01:00,
2013-05-26 05:07:00,42.4,38.3,29.75,South,180,0.0,0.0,85,0.00,,,0.02,pywws,2013-05-26 09:07:00,
2013-05-26 05:12:00,42.4,38.3,29.76,West,270,0.0,3.8,85,0.00,,,0.02,pywws,2013-05-26 09:12:00,
2013-05-26 05:18:00,42.4,38.0,29.76,North,0,0.0,0.0,84,0.00,,,0.02,pywws,2013-05-26 09:18:00,
2013-05-26 05:24:00,42.4,38.0,29.77,North,0,0.0,0.0,84,0.00,,,0.02,pywws,2013-05-26 09:24:00,
2013-05-26 05:29:00,42.6,38.1,29.76,East,90,0.0,0.0,84,0.00,,,0.02,pywws,2013-05-26 09:29:00,
2013-05-26 05:35:00,42.4,38.0,29.77,NE,45,0.0,0.0,84,0.00,,,0.02,pywws,2013-05-26 09:35:00,
2013-05-26 05:40:00,42.8,38.0,29.77,NW,315,0.0,0.0,83,0.00,,,0.02,pywws,2013-05-26 09:40:00,
2013-05-26 05:46:00,42.8,38.0,29.77,North,0,0.0,0.7,83,0.00,,,0.02,pywws,2013-05-26 09:46:00,
2013-05-26 05:52:00,43.2,38.4,29.77,North,0,0.0,0.0,83,0.00,,,0.02,pywws,2013-05-26 09:52:00,
2013-05-26 05:57:00,43.2,38.0,29.77,NW,315,0.0,1.6,82,0.00,,,0.02,pywws,2013-05-26 09:57:00,
2013-05-26 06:03:00,43.2,38.0,29.78,South,180,0.0,0.0,82,0.00,,,0.02,pywws,2013-05-26 10:03:00,
2013-05-26 06:08:00,43.3,38.2,29.78,North,0,0.0,0.0,82,0.00,,,0.02,pywws,2013-05-26 10:08:00,
2013-05-26 06:14:00,43.5,38.4,29.78,North,0,0.0,0.0,82,0.00,,,0.02,pywws,2013-05-26 10:14:00,
2013-05-26 06:20:00,43.5,38.4,29.78,North,0,0.0,0.0,82,0.00,,,0.02,pywws,2013-05-26 10:20:00,
2013-05-26 06:26:00,43.9,38.7,29.79,North,0,0.0,0.7,82,0.00,,,0.02,pywws,2013-05-26 10:26:00,
2013-05-26 06:32:00,44.2,39.1,29.79,North,0,0.0,0.0,82,0.00,,,0.02,pywws,2013-05-26 10:32:00,
2013-05-26 06:37:00,44.2,39.1,29.78,NE,45,0.0,0.0,82,0.00,,,0.02,pywws,2013-05-26 10:37:00,
2013-05-26 06:43:00,44.1,38.9,29.78,North,0,0.0,0.0,82,0.00,,,0.02,pywws,2013-05-26 10:43:00,
2013-05-26 06:48:00,44.4,39.3,29.78,East,90,0.0,0.0,82,0.00,,,0.02,pywws,2013-05-26 10:48:00,
2013-05-26 06:54:00,44.6,39.1,29.79,North,0,0.0,0.0,81,0.00,,,0.02,pywws,2013-05-26 10:54:00,
2013-05-26 07:00:00,45.1,39.3,29.79,North,0,0.0,2.2,80,0.00,,,0.02,pywws,2013-05-26 11:00:00,
2013-05-26 07:05:00,45.5,39.4,29.79,SE,135,0.7,8.3,79,0.00,,,0.02,pywws,2013-05-26 11:05:00,
2013-05-26 07:11:00,45.9,39.7,29.80,West,270,0.0,0.0,79,0.00,,,0.02,pywws,2013-05-26 11:11:00,
2013-05-26 07:16:00,45.9,39.4,29.79,West,270,0.0,0.0,78,0.00,,,0.02,pywws,2013-05-26 11:16:00,
2013-05-26 07:22:00,45.7,38.9,29.80,NW,315,0.0,0.7,77,0.00,,,0.02,pywws,2013-05-26 11:22:00,
2013-05-26 07:28:00,45.7,38.9,29.80,NE,45,0.0,0.7,77,0.00,,,0.02,pywws,2013-05-26 11:28:00,
2013-05-26 07:33:00,46.2,39.4,29.80,SE,135,0.7,2.2,77,0.00,,,0.02,pywws,2013-05-26 11:33:00,
2013-05-26 07:39:00,45.9,38.7,29.80,West,270,0.0,0.0,76,0.00,,,0.02,pywws,2013-05-26 11:39:00,
2013-05-26 07:44:00,46.0,39.2,29.80,North,0,0.7,2.2,77,0.00,,,0.02,pywws,2013-05-26 11:44:00,
2013-05-26 07:50:00,46.2,39.4,29.81,South,180,0.0,2.2,77,0.00,,,0.02,pywws,2013-05-26 11:50:00,
2013-05-26 07:56:00,46.4,39.6,29.81,North,0,0.0,0.0,77,0.00,,,0.02,pywws,2013-05-26 11:56:00,
2013-05-26 08:01:00,46.0,38.9,29.81,SE,135,0.7,6.9,76,0.00,,,0.02,pywws,2013-05-26 12:01:00,
2013-05-26 08:07:00,46.4,39.3,29.82,West,270,1.6,7.6,76,0.00,,,0.02,pywws,2013-05-26 12:07:00,
2013-05-26 08:12:00,46.4,39.3,29.82,East,90,0.0,0.0,76,0.00,,,0.02,pywws,2013-05-26 12:12:00,
2013-05-26 08:18:00,46.4,38.9,29.82,North,0,0.7,6.0,75,0.00,,,0.02,pywws,2013-05-26 12:18:00,
2013-05-26 08:24:00,46.6,39.1,29.82,West,270,0.0,0.0,75,0.00,,,0.02,pywws,2013-05-26 12:24:00,
2013-05-26 08:29:00,46.9,39.4,29.82,North,0,0.0,0.0,75,0.00,,,0.02,pywws,2013-05-26 12:29:00,
2013-05-26 08:35:00,46.9,39.4,29.82,SW,225,0.0,1.6,75,0.00,,,0.02,pywws,2013-05-26 12:35:00,
2013-05-26 08:40:00,47.8,40.3,29.82,East,90,0.0,0.0,75,0.00,,,0.02,pywws,2013-05-26 12:40:00,
2013-05-26 08:46:00,48.6,39.6,29.82,West,270,2.2,5.4,71,0.00,,,0.02,pywws,2013-05-26 12:46:00,
2013-05-26 08:52:00,49.3,40.3,29.82,South,180,0.0,1.6,71,0.00,,,0.02,pywws,2013-05-26 12:52:00,
2013-05-26 08:57:00,49.3,39.5,29.83,North,0,0.0,0.7,69,0.00,,,0.02,pywws,2013-05-26 12:57:00,
2013-05-26 09:03:00,51.1,40.9,29.82,West,270,0.7,3.1,68,0.00,,,0.02,pywws,2013-05-26 13:03:00,
2013-05-26 09:08:00,50.7,39.4,29.82,East,90,0.0,3.1,65,0.00,,,0.02,pywws,2013-05-26 13:08:00,
2013-05-26 09:14:00,52.5,40.3,29.82,West,270,0.0,0.0,63,0.00,,,0.02,pywws,2013-05-26 13:14:00,
2013-05-26 09:20:00,51.4,39.7,29.82,NE,45,0.0,0.7,64,0.00,,,0.02,pywws,2013-05-26 13:20:00,
2013-05-26 09:25:00,50.5,38.8,29.83,West,270,0.7,3.8,64,0.00,,,0.02,pywws,2013-05-26 13:25:00,
2013-05-26 09:31:00,50.2,38.9,29.83,North,0,0.0,0.0,65,0.00,,,0.02,pywws,2013-05-26 13:31:00,
2013-05-26 09:36:00,50.2,38.9,29.83,SE,135,0.0,0.0,65,0.00,,,0.02,pywws,2013-05-26 13:36:00,
2013-05-26 09:42:00,50.7,39.4,29.83,North,0,0.0,0.0,65,0.00,,,0.02,pywws,2013-05-26 13:42:00,
2013-05-26 09:48:00,51.3,40.3,29.83,West,270,0.0,0.0,66,0.00,,,0.02,pywws,2013-05-26 13:48:00,
2013-05-26 09:53:00,51.3,39.5,29.84,NW,315,0.0,0.7,64,0.00,,,0.02,pywws,2013-05-26 13:53:00,
2013-05-26 09:59:00,52.0,40.2,29.84,North,0,0.0,0.0,64,0.00,,,0.02,pywws,2013-05-26 13:59:00,
2013-05-26 10:04:00,51.8,39.6,29.84,NW,315,0.7,4.5,63,0.00,,,0.02,pywws,2013-05-26 14:04:00,
2013-05-26 10:10:00,51.8,39.6,29.85,West,270,0.0,0.7,63,0.00,,,0.02,pywws,2013-05-26 14:10:00,
2013-05-26 10:16:00,51.8,39.6,29.85,SW,225,0.0,1.6,63,0.00,,,0.02,pywws,2013-05-26 14:16:00,
2013-05-26 10:21:00,52.0,39.8,29.85,North,0,0.0,0.0,63,0.00,,,0.02,pywws,2013-05-26 14:21:00,
2013-05-26 10:27:00,51.8,39.2,29.85,SW,225,0.0,0.0,62,0.00,,,0.02,pywws,2013-05-26 14:27:00,
2013-05-26 10:32:00,52.0,39.4,29.85,West,270,3.1,6.9,62,0.00,,,0.02,pywws,2013-05-26 14:32:00,
2013-05-26 10:38:00,52.0,39.4,29.85,North,0,0.7,7.6,62,0.00,,,0.02,pywws,2013-05-26 14:38:00,
2013-05-26 10:44:00,53.4,41.1,29.85,West,270,0.0,0.0,63,0.00,,,0.02,pywws,2013-05-26 14:44:00,
2013-05-26 10:49:00,53.2,40.6,29.85,West,270,0.0,0.0,62,0.00,,,0.02,pywws,2013-05-26 14:49:00,
2013-05-26 10:55:00,52.3,39.7,29.85,West,270,1.6,4.5,62,0.00,,,0.02,pywws,2013-05-26 14:55:00,
2013-05-26 11:00:00,53.4,41.1,29.86,NW,315,0.0,2.2,63,0.00,,,0.02,pywws,2013-05-26 15:00:00,
2013-05-26 11:06:00,52.3,38.9,29.86,North,0,0.0,0.0,60,0.00,,,0.02,pywws,2013-05-26 15:06:00,
2013-05-26 11:12:00,52.0,39.0,29.86,West,270,0.0,0.0,61,0.00,,,0.02,pywws,2013-05-26 15:12:00,
2013-05-26 11:18:00,52.3,40.1,29.87,SW,225,0.7,6.9,63,0.00,,,0.02,pywws,2013-05-26 15:18:00,
2013-05-26 11:24:00,52.7,40.1,29.86,NW,315,0.0,3.1,62,0.00,,,0.02,pywws,2013-05-26 15:24:00,
2013-05-26 11:29:00,52.5,39.9,29.87,West,270,0.0,4.5,62,0.00,,,0.02,pywws,2013-05-26 15:29:00,
2013-05-26 11:35:00,52.7,39.6,29.87,West,270,0.0,2.2,61,0.00,,,0.02,pywws,2013-05-26 15:35:00,
2013-05-26 11:40:00,52.9,39.8,29.87,West,270,0.0,0.0,61,0.00,,,0.02,pywws,2013-05-26 15:40:00,
2013-05-26 11:46:00,52.9,39.4,29.87,NE,45,0.0,0.7,60,0.00,,,0.02,pywws,2013-05-26 15:46:00,
2013-05-26 11:52:00,55.0,41.8,29.87,South,180,0.0,0.0,61,0.00,,,0.02,pywws,2013-05-26 15:52:00,
2013-05-26 11:58:00,53.6,37.8,29.88,North,0,0.0,0.0,55,0.00,,,0.02,pywws,2013-05-26 15:58:00,
2013-05-26 12:04:00,54.5,39.1,29.88,West,270,0.0,0.0,56,0.00,,,0.02,pywws,2013-05-26 16:04:00,
2013-05-26 12:09:00,54.0,38.6,29.88,SW,225,0.0,4.5,56,0.00,,,0.02,pywws,2013-05-26 16:09:00,
2013-05-26 12:15:00,52.7,38.8,29.88,North,0,0.0,0.0,59,0.00,,,0.02,pywws,2013-05-26 16:15:00,
2013-05-26 12:20:00,54.5,40.0,29.89,SW,225,2.2,9.2,58,0.00,,,0.02,pywws,2013-05-26 16:20:00,
2013-05-26 12:26:00,54.9,40.4,29.89,South,180,0.0,2.2,58,0.00,,,0.02,pywws,2013-05-26 16:26:00,
2013-05-26 12:32:00,55.8,40.3,29.88,North,0,0.0,0.7,56,0.00,,,0.02,pywws,2013-05-26 16:32:00,
2013-05-26 12:37:00,55.0,39.6,29.88,North,0,0.0,0.0,56,0.00,,,0.02,pywws,2013-05-26 16:37:00,
2013-05-26 12:43:00,56.5,40.5,29.88,East,90,0.0,0.7,55,0.00,,,0.02,pywws,2013-05-26 16:43:00,
2013-05-26 12:48:00,55.8,39.4,29.88,North,0,0.0,0.7,54,0.00,,,0.02,pywws,2013-05-26 16:48:00,
2013-05-26 12:54:00,55.0,39.2,29.89,West,270,0.0,0.0,55,0.00,,,0.02,pywws,2013-05-26 16:54:00,
2013-05-26 13:00:00,56.5,40.5,29.89,North,0,0.0,0.0,55,0.00,,,0.02,pywws,2013-05-26 17:00:00,
2013-05-26 13:05:00,57.0,41.0,29.90,NW,315,0.0,0.7,55,0.00,,,0.02,pywws,2013-05-26 17:05:00,
2013-05-26 13:11:00,56.1,38.2,29.89,South,180,0.0,0.0,51,0.00,,,0.02,pywws,2013-05-26 17:11:00,
2013-05-26 13:16:00,55.9,38.1,29.89,North,0,0.0,0.0,51,0.00,,,0.02,pywws,2013-05-26 17:16:00,
2013-05-26 13:22:00,57.2,39.2,29.90,North,0,0.0,0.7,51,0.00,,,0.02,pywws,2013-05-26 17:22:00,
2013-05-26 13:28:00,59.7,40.0,29.89,North,0,0.0,3.1,48,0.00,,,0.02,pywws,2013-05-26 17:28:00,
2013-05-26 13:33:00,58.5,38.3,29.89,West,270,0.0,2.2,47,0.00,,,0.02,pywws,2013-05-26 17:33:00,
2013-05-26 13:39:00,57.2,38.2,29.90,North,0,0.0,3.8,49,0.00,,,0.02,pywws,2013-05-26 17:39:00,
2013-05-26 13:44:00,58.8,39.2,29.90,SE,135,0.0,0.7,48,0.00,,,0.02,pywws,2013-05-26 17:44:00,
2013-05-26 13:50:00,57.6,37.5,29.89,South,180,1.6,12.1,47,0.00,,,0.02,pywws,2013-05-26 17:50:00,
2013-05-26 13:56:00,58.1,38.5,29.90,West,270,0.0,0.7,48,0.00,,,0.02,pywws,2013-05-26 17:56:00,
2013-05-26 14:01:00,57.6,38.0,29.90,NW,315,0.0,0.7,48,0.00,,,0.02,pywws,2013-05-26 18:01:00,
2013-05-26 14:08:00,59.0,40.9,29.90,South,180,0.0,0.0,51,0.00,,,0.02,pywws,2013-05-26 18:08:00,
2013-05-26 14:13:00,57.4,37.9,29.91,North,0,1.6,8.3,48,0.00,,,0.02,pywws,2013-05-26 18:13:00,
2013-05-26 14:19:00,58.6,39.5,29.91,West,270,0.0,0.7,49,0.00,,,0.02,pywws,2013-05-26 18:19:00,
2013-05-26 14:24:00,58.6,40.1,29.91,North,0,0.0,0.0,50,0.00,,,0.02,pywws,2013-05-26 18:24:00,
2013-05-26 14:30:00,57.7,37.6,29.91,NW,315,0.0,0.0,47,0.00,,,0.02,pywws,2013-05-26 18:30:00,
2013-05-26 14:36:00,60.3,41.5,29.91,West,270,0.0,0.0,50,0.00,,,0.02,pywws,2013-05-26 18:36:00,
2013-05-26 14:41:00,60.6,40.3,29.91,West,270,2.2,9.2,47,0.00,,,0.02,pywws,2013-05-26 18:41:00,
2013-05-26 14:47:00,59.4,38.0,29.91,NE,45,2.2,6.0,45,0.00,,,0.02,pywws,2013-05-26 18:47:00,
2013-05-26 14:53:00,57.9,37.8,29.92,SE,135,0.7,7.6,47,0.00,,,0.02,pywws,2013-05-26 18:53:00,
2013-05-26 14:59:00,58.8,39.7,29.92,West,270,0.0,1.6,49,0.00,,,0.02,pywws,2013-05-26 18:59:00,
2013-05-26 15:04:00,58.6,41.1,29.93,West,270,0.0,2.2,52,0.00,,,0.02,pywws,2013-05-26 19:04:00,
2013-05-26 15:10:00,59.2,40.0,29.92,West,270,0.7,5.4,49,0.00,,,0.02,pywws,2013-05-26 19:10:00,
2013-05-26 15:16:00,57.7,38.2,29.93,West,270,0.0,0.0,48,0.00,,,0.02,pywws,2013-05-26 19:16:00,
2013-05-26 15:21:00,57.9,38.9,29.93,South,180,0.7,5.4,49,0.00,,,0.02,pywws,2013-05-26 19:21:00,
2013-05-26 15:27:00,56.8,37.9,29.93,NE,45,0.0,0.0,49,0.00,,,0.02,pywws,2013-05-26 19:27:00,
2013-05-26 15:32:00,57.2,39.2,29.93,NW,315,0.0,2.2,51,0.00,,,0.02,pywws,2013-05-26 19:32:00,
2013-05-26 15:38:00,59.7,42.6,29.93,NW,315,0.0,1.6,53,0.00,,,0.02,pywws,2013-05-26 19:38:00,
2013-05-26 15:44:00,59.0,40.4,29.94,East,90,0.0,1.6,50,0.00,,,0.02,pywws,2013-05-26 19:44:00,
2013-05-26 15:49:00,56.7,40.2,29.95,SW,225,0.0,0.0,54,0.00,,,0.02,pywws,2013-05-26 19:49:00,
2013-05-26 15:55:00,56.3,41.3,29.94,SW,225,0.0,0.7,57,0.00,,,0.02,pywws,2013-05-26 19:55:00,
2013-05-26 16:00:00,56.7,41.6,29.95,North,0,0.0,0.0,57,0.00,,,0.02,pywws,2013-05-26 20:00:00,
2013-05-26 16:06:00,57.6,41.0,29.94,South,180,0.0,0.7,54,0.00,,,0.02,pywws,2013-05-26 20:06:00,
2013-05-26 16:12:00,60.3,43.5,29.95,SE,135,0.0,2.2,54,0.00,,,0.02,pywws,2013-05-26 20:12:00,
2013-05-26 16:17:00,60.8,43.1,29.95,West,270,0.0,0.0,52,0.00,,,0.02,pywws,2013-05-26 20:17:00,
2013-05-26 16:23:00,59.7,41.6,29.96,West,270,0.0,0.0,51,0.00,,,0.02,pywws,2013-05-26 20:23:00,
2013-05-26 16:28:00,57.2,39.2,29.96,North,0,0.0,0.0,51,0.00,,,0.02,pywws,2013-05-26 20:28:00,
2013-05-26 16:34:00,57.7,40.7,29.96,NW,315,0.0,1.6,53,0.00,,,0.02,pywws,2013-05-26 20:34:00,
2013-05-26 16:40:00,60.3,43.5,29.96,North,0,0.0,1.6,54,0.00,,,0.02,pywws,2013-05-26 20:40:00,
2013-05-26 16:45:00,59.7,42.6,29.96,West,270,0.0,4.5,53,0.00,,,0.02,pywws,2013-05-26 20:45:00,
2013-05-26 16:51:00,58.5,40.9,29.96,South,180,0.0,0.0,52,0.00,,,0.02,pywws,2013-05-26 20:51:00,
2013-05-26 16:56:00,58.6,42.5,29.96,NW,315,0.7,5.4,55,0.00,,,0.02,pywws,2013-05-26 20:56:00,
2013-05-26 17:02:00,57.0,40.5,29.97,North,0,0.0,0.0,54,0.00,,,0.02,pywws,2013-05-26 21:02:00,
2013-05-26 17:08:00,57.4,40.9,29.97,West,270,0.0,0.0,54,0.00,,,0.02,pywws,2013-05-26 21:08:00,
2013-05-26 17:13:00,59.0,42.4,29.97,SW,225,0.0,3.1,54,0.00,,,0.02,pywws,2013-05-26 21:13:00,
2013-05-26 17:19:00,58.3,41.7,29.98,North,0,0.7,4.5,54,0.00,,,0.02,pywws,2013-05-26 21:19:00,
2013-05-26 17:24:00,57.2,41.2,29.98,North,0,0.0,2.2,55,0.00,,,0.02,pywws,2013-05-26 21:24:00,
2013-05-26 17:30:00,55.2,39.3,29.98,NE,45,0.0,0.0,55,0.00,,,0.02,pywws,2013-05-26 21:30:00,
2013-05-26 17:36:00,55.8,39.8,29.98,East,90,0.0,0.0,55,0.00,,,0.02,pywws,2013-05-26 21:36:00,
2013-05-26 17:41:00,56.1,40.6,29.98,West,270,0.0,0.0,56,0.00,,,0.02,pywws,2013-05-26 21:41:00,
2013-05-26 17:47:00,55.6,39.7,29.99,West,270,0.0,0.0,55,0.00,,,0.02,pywws,2013-05-26 21:47:00,
2013-05-26 17:52:00,55.2,38.9,29.99,East,90,0.0,2.2,54,0.00,,,0.02,pywws,2013-05-26 21:52:00,
2013-05-26 18:00:00,54.7,38.8,29.99,West,270,0.0,2.2,55,0.00,,,0.02,pywws,2013-05-26 22:00:00,
2013-05-26 18:06:00,54.5,38.7,30.00,West,270,0.0,0.0,55,0.00,,,0.02,pywws,2013-05-26 22:06:00,
2013-05-26 18:12:00,54.3,38.5,30.00,NW,315,0.0,1.6,55,0.00,,,0.02,pywws,2013-05-26 22:12:00,
2013-05-26 18:17:00,54.1,38.3,30.00,East,90,0.0,2.2,55,0.00,,,0.02,pywws,2013-05-26 22:17:00,
2013-05-26 18:23:00,54.5,39.1,30.01,West,270,0.0,0.0,56,0.00,,,0.02,pywws,2013-05-26 22:23:00,
2013-05-26 18:28:00,54.5,39.1,30.01,North,0,0.0,3.1,56,0.00,,,0.02,pywws,2013-05-26 22:28:00,
2013-05-26 18:34:00,55.0,39.2,30.01,West,270,0.0,0.7,55,0.00,,,0.02,pywws,2013-05-26 22:34:00,
2013-05-26 18:40:00,54.5,38.2,30.01,West,270,0.7,6.0,54,0.00,,,0.02,pywws,2013-05-26 22:40:00,
2013-05-26 18:45:00,54.1,37.9,30.01,SE,135,0.0,0.7,54,0.00,,,0.02,pywws,2013-05-26 22:45:00,
2013-05-26 18:51:00,54.0,39.1,30.01,West,270,0.0,0.0,57,0.00,,,0.02,pywws,2013-05-26 22:51:00,
2013-05-26 18:56:00,53.8,39.4,30.02,West,270,0.0,1.6,58,0.00,,,0.02,pywws,2013-05-26 22:56:00,
2013-05-26 19:02:00,53.4,39.5,30.03,SW,225,0.0,1.6,59,0.00,,,0.02,pywws,2013-05-26 23:02:00,
2013-05-26 19:08:00,53.4,39.9,30.03,SW,225,0.0,0.7,60,0.00,,,0.02,pywws,2013-05-26 23:08:00,
2013-05-26 19:13:00,53.2,39.7,30.03,East,90,0.0,0.0,60,0.00,,,0.02,pywws,2013-05-26 23:13:00,
2013-05-26 19:19:00,52.7,39.6,30.03,SE,135,0.0,6.0,61,0.00,,,0.02,pywws,2013-05-26 23:19:00,
2013-05-26 19:24:00,52.3,39.7,30.03,West,270,0.0,0.0,62,0.00,,,0.02,pywws,2013-05-26 23:24:00,
2013-05-26 19:30:00,52.2,39.5,30.04,East,90,0.0,0.0,62,0.00,,,0.02,pywws,2013-05-26 23:30:00,
2013-05-26 19:36:00,52.2,40.0,30.05,West,270,0.0,0.7,63,0.00,,,0.02,pywws,2013-05-26 23:36:00,
2013-05-26 19:42:00,51.8,39.6,30.05,East,90,0.0,0.0,63,0.00,,,0.02,pywws,2013-05-26 23:42:00,
2013-05-26 19:48:00,51.8,39.6,30.05,North,0,0.0,0.0,63,0.00,,,0.02,pywws,2013-05-26 23:48:00,
2013-05-26 19:53:00,51.6,39.8,30.05,North,0,0.0,0.0,64,0.00,,,0.02,pywws,2013-05-26 23:53:00,
2013-05-26 19:59:00,51.3,39.9,30.06,North,0,0.0,0.0,65,0.00,,,0.02,pywws,2013-05-26 23:59:00,
2013-05-26 20:06:00,51.3,40.3,30.06,NW,315,0.0,0.0,66,0.00,,,0.02,pywws,2013-05-27 00:06:00,
2013-05-26 20:12:00,51.3,39.9,30.06,West,270,0.0,0.0,65,0.00,,,0.02,pywws,2013-05-27 00:12:00,
2013-05-26 20:17:00,51.4,40.1,30.07,East,90,0.0,0.0,65,0.00,,,0.02,pywws,2013-05-27 00:17:00,
2013-05-26 20:23:00,51.3,39.9,30.07,SW,225,0.0,2.2,65,0.00,,,0.02,pywws,2013-05-27 00:23:00,
2013-05-26 20:28:00,50.9,39.6,30.07,West,270,0.0,0.0,65,0.00,,,0.02,pywws,2013-05-27 00:28:00,
2013-05-26 20:34:00,51.3,39.5,30.07,NE,45,0.0,0.0,64,0.00,,,0.02,pywws,2013-05-27 00:34:00,
2013-05-26 20:40:00,51.1,39.3,30.07,North,0,0.0,0.0,64,0.00,,,0.02,pywws,2013-05-27 00:40:00,
2013-05-26 20:45:00,50.9,39.2,30.07,South,180,0.0,0.0,64,0.00,,,0.02,pywws,2013-05-27 00:45:00,
2013-05-26 20:51:00,50.5,39.2,30.07,SW,225,0.0,0.0,65,0.00,,,0.02,pywws,2013-05-27 00:51:00,
2013-05-26 20:56:00,50.0,39.1,30.07,East,90,0.0,0.0,66,0.00,,,0.02,pywws,2013-05-27 00:56:00,
2013-05-26 21:02:00,50.0,39.1,30.08,North,0,0.0,0.0,66,0.00,,,0.02,pywws,2013-05-27 01:02:00,
2013-05-26 21:08:00,49.6,39.1,30.08,West,270,0.0,1.6,67,0.00,,,0.02,pywws,2013-05-27 01:08:00,
2013-05-26 21:13:00,49.6,39.5,30.08,North,0,0.0,0.0,68,0.00,,,0.02,pywws,2013-05-27 01:13:00,
2013-05-26 21:19:00,49.8,39.7,30.09,West,270,0.0,0.0,68,0.00,,,0.02,pywws,2013-05-27 01:19:00,
2013-05-26 21:24:00,49.1,39.4,30.09,SE,135,0.0,0.0,69,0.00,,,0.02,pywws,2013-05-27 01:24:00,
2013-05-26 21:30:00,48.6,39.2,30.09,North,0,0.0,0.0,70,0.00,,,0.02,pywws,2013-05-27 01:30:00,
2013-05-26 21:36:00,48.4,39.1,30.09,North,0,0.0,0.0,70,0.00,,,0.02,pywws,2013-05-27 01:36:00,
2013-05-26 21:41:00,47.7,39.8,30.09,North,0,0.0,0.7,74,0.00,,,0.02,pywws,2013-05-27 01:41:00,
2013-05-26 21:47:00,48.2,39.6,30.09,East,90,0.0,0.0,72,0.00,,,0.02,pywws,2013-05-27 01:47:00,
2013-05-26 21:52:00,47.1,39.3,30.09,North,0,0.0,0.0,74,0.00,,,0.02,pywws,2013-05-27 01:52:00,
2013-05-26 21:58:00,47.1,39.6,30.09,East,90,0.0,0.0,75,0.00,,,0.02,pywws,2013-05-27 01:58:00,
2013-05-26 22:04:00,46.9,39.8,30.10,North,0,0.0,0.0,76,0.00,,,0.02,pywws,2013-05-27 02:04:00,
2013-05-26 22:10:00,46.9,39.8,30.09,East,90,0.0,0.0,76,0.00,,,0.02,pywws,2013-05-27 02:10:00,
2013-05-26 22:16:00,46.9,39.8,30.10,South,180,0.0,0.0,76,0.00,,,0.02,pywws,2013-05-27 02:16:00,
2013-05-26 22:21:00,47.3,40.1,30.10,East,90,0.0,0.0,76,0.00,,,0.02,pywws,2013-05-27 02:21:00,
2013-05-26 22:27:00,46.9,39.8,30.10,West,270,0.0,0.0,76,0.00,,,0.02,pywws,2013-05-27 02:27:00,
2013-05-26 22:32:00,46.8,39.6,30.10,West,270,0.0,0.0,76,0.00,,,0.02,pywws,2013-05-27 02:32:00,
2013-05-26 22:39:00,46.2,39.4,30.10,West,270,0.0,0.0,77,0.00,,,0.02,pywws,2013-05-27 02:39:00,
2013-05-26 22:44:00,46.6,39.8,30.10,South,180,0.0,0.0,77,0.00,,,0.02,pywws,2013-05-27 02:44:00,
2013-05-26 22:51:00,46.0,39.6,30.11,South,180,0.0,0.0,78,0.00,,,0.02,pywws,2013-05-27 02:51:00,
2013-05-26 22:56:00,45.3,39.2,30.11,South,180,0.0,0.0,79,0.00,,,0.02,pywws,2013-05-27 02:56:00,
2013-05-26 23:04:00,44.6,39.1,30.11,South,180,0.0,0.0,81,0.00,,,0.02,pywws,2013-05-27 03:04:00,
2013-05-26 23:09:00,44.1,38.9,30.11,South,180,0.0,0.0,82,0.00,,,0.02,pywws,2013-05-27 03:09:00,
2013-05-26 23:15:00,43.9,39.1,30.11,East,90,0.0,0.0,83,0.00,,,0.02,pywws,2013-05-27 03:15:00,
2013-05-26 23:20:00,43.5,39.0,30.11,East,90,0.0,0.0,84,0.00,,,0.02,pywws,2013-05-27 03:20:00,
2013-05-26 23:26:00,43.0,38.8,30.12,East,90,0.0,0.0,85,0.00,,,0.02,pywws,2013-05-27 03:26:00,
2013-05-26 23:32:00,43.0,39.1,30.12,East,90,0.0,0.0,86,0.00,,,0.02,pywws,2013-05-27 03:32:00,
2013-05-26 23:37:00,42.4,38.8,30.12,East,90,0.0,0.0,87,0.00,,,0.02,pywws,2013-05-27 03:37:00,
2013-05-26 23:43:00,42.3,39.0,30.12,East,90,0.0,0.0,88,0.00,,,0.02,pywws,2013-05-27 03:43:00,
2013-05-26 23:48:00,41.7,38.4,30.12,West,270,0.0,0.0,88,0.00,,,0.02,pywws,2013-05-27 03:48:00,
2013-05-26 23:54:00,41.5,38.5,30.13,West,270,0.0,0.0,89,0.00,,,0.02,pywws,2013-05-27 03:54:00,